Time;durP1;ratioP1;P1;durP2;ratioP2;P2;SDS_P1;SDS_P2;PMS_P1;PMS_P2;Temp;Humidity;BMP_temperature;BMP_pressure;BME280_temperature;BME280_humidity;BME280_pressure;Samples;Min_cycle;Max_cycle;Signal;HPM_P1;HPM_P2
2022/01/09 00:00:33;;;;;;;10.20;6.75;;;0.10;99.90;;;;;;5009167;28;20469;-61
2022/01/09 00:02:59;;;;;;;12.55;8.07;;;0.10;99.90;;;;;;5007649;28;20029;-61
2022/01/09 00:05:25;;;;;;;9.93;8.93;;;0.10;99.90;;;;;;5024789;28;20091;-61
2022/01/09 00:07:51;;;;;;;12.90;7.93;;;0.10;99.90;;;;;;5027130;28;20030;-61
2022/01/09 00:10:20;;;;;;;12.63;9.77;;;0.10;99.90;;;;;;5021041;28;20040;-61
2022/01/09 00:12:47;;;;;;;15.85;9.63;;;0.10;99.90;;;;;;5004742;28;20054;-62
2022/01/09 00:15:13;;;;;;;10.52;9.27;;;0.00;99.90;;;;;;5008186;28;20029;-61
2022/01/09 00:17:39;;;;;;;10.68;8.52;;;0.00;99.90;;;;;;5027276;28;20459;-61
2022/01/09 00:20:25;;;;;;;9.93;8.55;;;0.10;99.90;;;;;;5013396;28;20114;-61
2022/01/09 00:22:51;;;;;;;14.15;10.52;;;0.00;99.90;;;;;;5008553;28;20050;-61
2022/01/09 00:25:24;;;;;;;12.57;8.15;;;0.00;99.90;;;;;;5017669;28;20033;-61
2022/01/09 00:27:51;;;;;;;12.07;9.88;;;0.00;99.90;;;;;;5024761;28;20397;-61
2022/01/09 00:30:23;;;;;;;14.25;10.20;;;0.10;99.90;;;;;;5008024;28;20117;-63
2022/01/09 00:32:49;;;;;;;9.45;8.50;;;0.10;99.90;;;;;;5026645;28;20084;-61
2022/01/09 00:35:24;;;;;;;11.30;9.48;;;0.10;99.90;;;;;;5011370;28;20038;-61
2022/01/09 00:37:50;;;;;;;11.40;10.20;;;0.10;99.90;;;;;;5007601;28;20076;-61
2022/01/09 00:40:22;;;;;;;14.02;9.45;;;0.20;99.90;;;;;;5006474;28;20038;-61
2022/01/09 00:42:53;;;;;;;12.82;9.75;;;0.20;99.90;;;;;;5008791;28;20040;-62
2022/01/09 00:45:25;;;;;;;10.65;9.15;;;0.20;99.90;;;;;;5040071;28;20492;-61
2022/01/09 00:47:51;;;;;;;13.50;9.65;;;0.20;99.90;;;;;;5023935;28;20049;-62
2022/01/09 00:50:16;;;;;;;11.15;8.93;;;0.20;99.90;;;;;;5010509;28;20381;-61
2022/01/09 00:52:42;;;;;;;13.32;9.80;;;0.30;99.90;;;;;;5017622;28;20029;-61
2022/01/09 00:55:11;;;;;;;9.98;8.90;;;0.30;99.90;;;;;;5021718;28;20125;-61
2022/01/09 00:57:37;;;;;;;11.10;9.20;;;0.30;99.90;;;;;;5005716;28;20057;-63
2022/01/09 01:00:10;;;;;;;12.75;9.77;;;0.30;99.90;;;;;;5008012;28;20070;-61
2022/01/09 01:02:35;;;;;;;11.40;9.55;;;0.30;99.90;;;;;;5023422;28;20038;-62
2022/01/09 01:05:02;;;;;;;10.25;9.20;;;0.30;99.90;;;;;;5013948;28;20026;-63
2022/01/09 01:07:28;;;;;;;15.20;10.43;;;0.30;99.90;;;;;;5006510;28;20034;-62
2022/01/09 01:09:57;;;;;;;13.95;10.73;;;0.30;99.90;;;;;;5007868;28;20037;-62
2022/01/09 01:12:26;;;;;;;14.50;10.35;;;0.30;99.90;;;;;;5004678;28;20030;-60
2022/01/09 01:14:52;;;;;;;12.85;10.00;;;0.30;99.90;;;;;;5006557;28;20029;-60
2022/01/09 01:17:19;;;;;;;11.45;10.35;;;0.30;99.90;;;;;;5023451;28;20062;-60
2022/01/09 01:19:45;;;;;;;13.98;10.50;;;0.30;99.90;;;;;;5024351;28;20104;-60
2022/01/09 01:22:11;;;;;;;11.60;10.32;;;0.20;99.90;;;;;;5026379;28;20025;-60
2022/01/09 01:24:43;;;;;;;19.30;13.65;;;0.20;99.90;;;;;;5025553;28;20061;-60
2022/01/09 01:27:09;;;;;;;11.38;9.77;;;0.30;99.90;;;;;;5026929;28;20025;-60
2022/01/09 01:29:43;;;;;;;15.23;10.25;;;0.30;99.90;;;;;;5026995;28;20116;-60
2022/01/09 01:32:09;;;;;;;11.93;10.73;;;0.30;99.90;;;;;;5025364;28;20032;-60
2022/01/09 01:34:44;;;;;;;11.75;10.55;;;0.30;99.90;;;;;;5025489;28;20026;-60
2022/01/09 01:37:09;;;;;;;12.50;11.07;;;0.40;99.90;;;;;;5040290;28;20400;-60
2022/01/09 01:39:35;;;;;;;13.38;11.65;;;0.40;99.90;;;;;;5025484;28;20032;-60
2022/01/09 01:42:00;;;;;;;14.10;10.98;;;0.40;99.90;;;;;;5027153;28;20013;-61
2022/01/09 01:44:44;;;;;;;15.23;11.38;;;0.40;99.90;;;;;;5022464;28;20030;-60
2022/01/09 01:47:11;;;;;;;17.08;11.32;;;0.40;99.90;;;;;;5023559;28;20045;-59
2022/01/09 01:49:47;;;;;;;13.13;11.32;;;0.40;99.90;;;;;;5023494;28;20029;-59
2022/01/09 01:52:16;;;;;;;11.88;10.68;;;0.40;99.90;;;;;;5056018;28;20034;-60
2022/01/09 01:54:47;;;;;;;13.73;11.00;;;0.40;99.90;;;;;;5022284;28;20041;-60
2022/01/09 01:57:16;;;;;;;12.40;10.20;;;0.40;99.90;;;;;;5027165;28;20032;-60
2022/01/09 01:59:48;;;;;;;13.45;11.48;;;0.40;99.90;;;;;;5023551;28;20030;-59
2022/01/09 02:02:13;;;;;;;12.80;10.20;;;0.40;99.90;;;;;;5022678;28;20083;-59
2022/01/09 02:04:48;;;;;;;13.02;11.70;;;0.40;99.90;;;;;;5015446;28;20462;-60
2022/01/09 02:07:17;;;;;;;15.63;11.18;;;0.40;99.90;;;;;;5012446;28;20033;-60
2022/01/09 02:09:49;;;;;;;14.70;10.80;;;0.40;99.90;;;;;;5053852;28;20049;-60
2022/01/09 02:12:15;;;;;;;15.15;11.82;;;0.40;99.90;;;;;;5002882;28;20485;-60
2022/01/09 02:14:48;;;;;;;16.48;12.27;;;0.40;99.90;;;;;;5025209;28;20107;-60
2022/01/09 02:17:21;;;;;;;15.70;9.93;;;0.40;99.90;;;;;;5008431;28;20038;-59
2022/01/09 02:19:53;;;;;;;14.05;11.43;;;0.40;99.90;;;;;;5030646;28;20041;-60
2022/01/09 02:22:19;;;;;;;13.98;11.48;;;0.40;99.90;;;;;;5016017;28;20030;-60
2022/01/09 02:24:49;;;;;;;15.30;10.75;;;0.40;99.90;;;;;;5005632;28;20397;-60
2022/01/09 02:27:15;;;;;;;12.68;11.13;;;0.50;99.90;;;;;;5006360;28;20072;-60
2022/01/09 02:29:50;;;;;;;12.05;9.93;;;0.50;99.90;;;;;;5023979;28;20076;-60
2022/01/09 02:32:16;;;;;;;13.52;11.85;;;0.40;99.90;;;;;;5010256;28;20034;-60
2022/01/09 02:34:51;;;;;;;14.30;11.63;;;0.40;99.90;;;;;;5019732;28;20053;-60
2022/01/09 02:37:17;;;;;;;16.63;10.40;;;0.40;99.90;;;;;;5012064;28;20028;-59
2022/01/09 02:39:53;;;;;;;13.15;10.35;;;0.50;99.90;;;;;;5052161;28;20030;-59
2022/01/09 02:42:25;;;;;;;14.20;10.98;;;0.50;99.90;;;;;;5002958;28;20037;-60
2022/01/09 02:44:52;;;;;;;16.48;12.63;;;0.50;99.90;;;;;;5004551;28;20525;-60
2022/01/09 02:47:19;;;;;;;14.18;10.18;;;0.40;99.90;;;;;;5020087;28;20117;-60
2022/01/09 02:49:53;;;;;;;18.58;11.48;;;0.40;99.90;;;;;;5013437;28;20041;-59
2022/01/09 02:52:49;;;;;;;13.50;10.45;;;0.50;99.90;;;;;;5003725;28;20030;-62
2022/01/09 02:55:22;;;;;;;15.02;10.73;;;0.50;99.90;;;;;;5000728;28;20034;-61
2022/01/09 02:57:52;;;;;;;13.15;11.32;;;0.50;99.90;;;;;;5001407;28;20084;-62
2022/01/09 03:00:29;;;;;;;14.00;11.07;;;0.50;99.90;;;;;;5004929;28;20022;-61
2022/01/09 03:02:55;;;;;;;14.13;12.00;;;0.50;99.90;;;;;;4997267;28;20045;-61
2022/01/09 03:05:23;;;;;;;12.65;10.35;;;0.50;99.90;;;;;;5019667;28;20072;-63
2022/01/09 03:07:49;;;;;;;17.85;11.07;;;0.50;99.90;;;;;;5023035;28;20030;-61
2022/01/09 03:10:18;;;;;;;13.95;11.10;;;0.50;99.90;;;;;;5018185;28;20111;-61
2022/01/09 03:12:44;;;;;;;14.05;10.43;;;0.50;99.90;;;;;;5004641;28;20034;-61
2022/01/09 03:15:11;;;;;;;11.23;10.05;;;0.50;99.90;;;;;;5027301;28;20178;-62
2022/01/09 03:17:40;;;;;;;11.52;9.90;;;0.50;99.90;;;;;;5008556;28;20018;-62
2022/01/09 03:20:16;;;;;;;12.88;10.27;;;0.50;99.90;;;;;;5007516;28;20034;-61
2022/01/09 03:22:43;;;;;;;14.27;11.23;;;0.50;99.90;;;;;;5000500;28;20117;-63
2022/01/09 03:25:11;;;;;;;13.23;10.95;;;0.50;99.90;;;;;;5015365;28;20033;-62
2022/01/09 03:27:41;;;;;;;14.07;11.02;;;0.50;99.90;;;;;;5024193;28;20029;-61
2022/01/09 03:30:11;;;;;;;14.23;11.45;;;0.50;99.90;;;;;;5006418;28;20740;-61
2022/01/09 03:32:38;;;;;;;14.23;10.20;;;0.50;99.90;;;;;;5026504;28;20509;-63
2022/01/09 03:35:07;;;;;;;15.20;11.65;;;0.50;99.90;;;;;;5011840;28;20544;-61
2022/01/09 03:37:32;;;;;;;13.75;10.55;;;0.50;99.90;;;;;;5021574;28;20025;-61
2022/01/09 03:39:58;;;;;;;11.57;10.07;;;0.50;99.90;;;;;;5008783;28;20438;-62
2022/01/09 03:42:24;;;;;;;12.57;10.15;;;0.50;99.90;;;;;;5006466;28;20366;-64
2022/01/09 03:44:49;;;;;;;16.15;10.07;;;0.50;99.90;;;;;;5027791;28;20126;-61
2022/01/09 03:47:15;;;;;;;13.27;9.15;;;0.50;99.90;;;;;;5012575;28;20038;-61
2022/01/09 03:49:43;;;;;;;12.02;9.68;;;0.50;99.90;;;;;;5018846;28;20046;-61
2022/01/09 03:52:09;;;;;;;14.20;10.07;;;0.50;99.90;;;;;;5020958;28;20531;-60
2022/01/09 03:54:44;;;;;;;12.98;10.18;;;0.50;99.90;;;;;;5010424;28;20026;-61
2022/01/09 03:57:09;;;;;;;9.15;7.93;;;0.50;99.90;;;;;;5028523;28;20087;-62
2022/01/09 03:59:44;;;;;;;10.70;9.65;;;0.60;99.90;;;;;;5008210;28;20401;-61
2022/01/09 04:02:09;;;;;;;12.48;8.95;;;0.60;99.90;;;;;;5022989;28;20480;-61
2022/01/09 04:04:44;;;;;;;10.45;9.35;;;0.60;99.90;;;;;;5016976;28;20022;-61
2022/01/09 04:07:16;;;;;;;9.95;8.68;;;0.60;99.90;;;;;;5006293;28;20030;-61
2022/01/09 04:09:47;;;;;;;10.32;8.32;;;0.60;99.90;;;;;;5025502;28;20022;-61
2022/01/09 04:12:16;;;;;;;9.90;8.57;;;0.60;99.90;;;;;;5042005;28;20492;-63
2022/01/09 04:14:49;;;;;;;10.07;8.55;;;0.60;99.90;;;;;;5027176;28;20034;-61
2022/01/09 04:17:28;;;;;;;8.75;7.53;;;0.60;99.90;;;;;;5019163;28;20058;-63
2022/01/09 04:19:54;;;;;;;12.00;7.30;;;0.60;99.90;;;;;;5021202;28;20072;-62
2022/01/09 04:22:19;;;;;;;9.65;8.60;;;0.60;99.90;;;;;;5017925;28;20049;-63
2022/01/09 04:24:48;;;;;;;8.98;7.80;;;0.60;99.90;;;;;;5011570;28;20452;-61
2022/01/09 04:27:13;;;;;;;6.65;5.88;;;0.70;99.90;;;;;;5027882;28;20495;-62
2022/01/09 04:29:48;;;;;;;8.32;6.97;;;0.70;99.90;;;;;;5007756;28;20030;-60
2022/01/09 04:32:14;;;;;;;8.10;7.10;;;0.60;99.90;;;;;;5020985;28;20029;-61
2022/01/09 04:34:50;;;;;;;11.75;7.72;;;0.70;99.90;;;;;;5014574;28;20018;-62
2022/01/09 04:37:16;;;;;;;9.45;7.40;;;0.70;99.90;;;;;;5029417;28;20057;-62
2022/01/09 04:39:49;;;;;;;8.15;7.38;;;0.70;99.90;;;;;;5024156;28;20741;-61
2022/01/09 04:42:16;;;;;;;10.68;8.57;;;0.60;99.90;;;;;;5020715;28;20054;-61
2022/01/09 04:44:51;;;;;;;8.45;7.18;;;0.60;99.90;;;;;;5008614;28;20045;-61
2022/01/09 04:47:17;;;;;;;9.57;7.63;;;0.60;99.90;;;;;;5035946;28;20033;-62
2022/01/09 04:49:50;;;;;;;11.27;7.60;;;0.60;99.90;;;;;;5014968;28;20393;-61
2022/01/09 04:52:19;;;;;;;9.70;8.68;;;0.70;99.90;;;;;;5012866;28;20071;-61
2022/01/09 04:54:51;;;;;;;9.05;7.10;;;0.70;99.90;;;;;;5022266;28;20505;-61
2022/01/09 04:57:17;;;;;;;8.70;7.65;;;0.60;99.90;;;;;;5006065;28;20025;-62
2022/01/09 04:59:51;;;;;;;9.98;8.10;;;0.70;99.90;;;;;;5026279;28;20033;-61
2022/01/09 05:02:17;;;;;;;9.05;8.15;;;0.70;99.90;;;;;;5009436;28;20034;-61
2022/01/09 05:04:52;;;;;;;8.23;6.72;;;0.70;99.90;;;;;;5015831;28;20033;-61
2022/01/09 05:07:17;;;;;;;8.63;7.63;;;0.70;99.90;;;;;;5017246;28;20076;-62
2022/01/09 05:09:43;;;;;;;11.15;8.57;;;0.70;99.90;;;;;;5009922;28;20029;-63
2022/01/09 05:12:09;;;;;;;8.85;7.22;;;0.70;99.90;;;;;;5023545;28;20072;-62
2022/01/09 05:14:34;;;;;;;9.07;7.00;;;0.70;99.90;;;;;;5008077;28;20056;-62
2022/01/09 05:17:00;;;;;;;8.07;7.05;;;0.70;99.90;;;;;;5018645;28;20179;-62
2022/01/09 05:19:30;;;;;;;8.65;7.70;;;0.70;99.90;;;;;;5030159;28;20038;-63
2022/01/09 05:21:57;;;;;;;10.25;7.07;;;0.70;99.90;;;;;;5010454;28;20576;-62
2022/01/09 05:24:23;;;;;;;7.80;6.97;;;0.80;99.90;;;;;;5026351;28;20392;-61
2022/01/09 05:26:49;;;;;;;12.07;8.23;;;0.80;99.90;;;;;;5025594;28;20029;-61
2022/01/09 05:29:14;;;;;;;8.77;7.90;;;0.80;99.90;;;;;;5024161;28;20424;-61
2022/01/09 05:31:40;;;;;;;9.43;7.32;;;0.80;99.90;;;;;;5006494;28;20034;-61
2022/01/09 05:34:07;;;;;;;10.93;7.60;;;0.80;99.90;;;;;;5010533;28;20044;-61
2022/01/09 05:36:38;;;;;;;9.70;8.13;;;0.70;99.90;;;;;;5025016;28;20079;-60
2022/01/09 05:39:04;;;;;;;8.60;6.93;;;0.70;99.90;;;;;;5024714;28;20029;-62
2022/01/09 05:41:30;;;;;;;11.07;8.25;;;0.80;99.90;;;;;;5006215;28;20084;-61
2022/01/09 05:43:55;;;;;;;9.02;8.00;;;0.80;99.90;;;;;;5005077;28;20022;-60
2022/01/09 05:46:21;;;;;;;11.20;8.43;;;0.80;99.90;;;;;;5029550;28;20393;-60
2022/01/09 05:48:47;;;;;;;9.43;8.48;;;0.70;99.90;;;;;;5019811;28;20037;-60
2022/01/09 05:51:12;;;;;;;11.50;8.55;;;0.80;99.90;;;;;;5005903;28;20023;-61
2022/01/09 05:53:38;;;;;;;10.32;8.57;;;0.80;99.90;;;;;;5003779;28;20034;-60
2022/01/09 05:56:13;;;;;;;11.07;8.35;;;0.80;99.90;;;;;;5017206;28;20034;-60
2022/01/09 05:58:39;;;;;;;12.82;7.95;;;0.80;99.90;;;;;;5013225;28;20075;-60
2022/01/09 06:01:06;;;;;;;9.98;7.47;;;0.80;99.90;;;;;;5013804;28;20026;-62
2022/01/09 06:03:32;;;;;;;11.00;8.10;;;0.80;99.90;;;;;;5024269;28;20043;-60
2022/01/09 06:06:12;;;;;;;10.52;8.38;;;0.80;99.90;;;;;;5024604;28;20535;-61
2022/01/09 06:08:38;;;;;;;10.35;8.68;;;0.80;99.90;;;;;;5004331;28;20116;-60
2022/01/09 06:11:13;;;;;;;10.85;8.15;;;0.80;99.90;;;;;;5004539;28;20109;-61
2022/01/09 06:13:38;;;;;;;10.63;9.32;;;0.90;99.90;;;;;;5005029;28;20041;-60
2022/01/09 06:16:13;;;;;;;11.13;9.60;;;0.80;99.90;;;;;;5010968;28;20033;-61
2022/01/09 06:18:39;;;;;;;10.02;7.93;;;0.80;99.90;;;;;;5021199;28;20021;-60
2022/01/09 06:21:04;;;;;;;9.52;8.38;;;0.80;99.90;;;;;;5005572;28;20028;-61
2022/01/09 06:23:30;;;;;;;9.48;7.50;;;0.80;99.90;;;;;;5006264;28;20030;-61
2022/01/09 06:25:56;;;;;;;7.70;6.90;;;0.80;99.90;;;;;;5017384;28;20096;-61
2022/01/09 06:28:22;;;;;;;9.80;8.70;;;0.90;99.90;;;;;;5017073;28;20087;-60
2022/01/09 06:30:47;;;;;;;9.95;8.95;;;0.80;99.90;;;;;;5008796;28;20033;-61
2022/01/09 06:33:14;;;;;;;13.23;8.50;;;0.80;99.90;;;;;;5026149;28;20025;-62
2022/01/09 06:35:45;;;;;;;12.52;8.70;;;0.90;99.90;;;;;;5007041;28;20065;-60
2022/01/09 06:38:12;;;;;;;9.52;7.25;;;0.90;99.90;;;;;;5035618;28;20033;-61
2022/01/09 06:40:47;;;;;;;9.68;8.68;;;0.90;99.90;;;;;;5013423;28;20030;-61
2022/01/09 06:43:12;;;;;;;10.35;7.55;;;0.90;99.90;;;;;;5010358;28;20033;-61
2022/01/09 06:45:38;;;;;;;9.02;7.45;;;0.90;99.90;;;;;;5022005;28;20429;-61
2022/01/09 06:48:04;;;;;;;8.63;7.15;;;0.90;99.90;;;;;;5037327;28;20076;-61
2022/01/09 06:50:30;;;;;;;6.75;5.53;;;1.00;99.90;;;;;;5026409;28;20463;-61
2022/01/09 06:52:56;;;;;;;8.95;6.93;;;1.00;99.90;;;;;;5015560;28;20038;-61
2022/01/09 06:55:22;;;;;;;9.32;7.55;;;1.10;99.90;;;;;;5010394;28;20505;-61
2022/01/09 06:57:47;;;;;;;8.35;7.55;;;1.10;99.90;;;;;;5014278;28;20033;-61
2022/01/09 07:00:16;;;;;;;9.90;7.25;;;1.10;99.90;;;;;;5028858;28;20054;-61
2022/01/09 07:02:42;;;;;;;10.75;6.72;;;1.10;99.90;;;;;;5009904;28;20432;-61
2022/01/09 07:05:08;;;;;;;7.90;6.45;;;1.10;99.90;;;;;;5023423;28;20030;-61
2022/01/09 07:07:34;;;;;;;7.53;6.60;;;1.10;99.90;;;;;;5018351;28;20136;-61
2022/01/09 07:09:59;;;;;;;8.48;6.97;;;1.20;99.90;;;;;;5014419;28;21175;-62
2022/01/09 07:12:25;;;;;;;8.43;7.60;;;1.10;99.90;;;;;;5027346;28;20553;-61
2022/01/09 07:14:50;;;;;;;8.80;7.90;;;1.20;99.90;;;;;;5008766;28;20036;-61
2022/01/09 07:17:22;;;;;;;8.77;7.90;;;1.10;99.90;;;;;;5007600;28;20128;-61
2022/01/09 07:19:50;;;;;;;9.02;8.10;;;1.20;99.90;;;;;;5017941;28;20067;-62
2022/01/09 07:22:16;;;;;;;9.13;8.23;;;1.10;99.90;;;;;;5018972;28;20563;-62
2022/01/09 07:24:41;;;;;;;9.95;7.72;;;1.20;99.90;;;;;;5009247;28;20045;-62
2022/01/09 07:27:07;;;;;;;7.60;6.72;;;1.20;99.90;;;;;;5009724;28;20056;-64
2022/01/09 07:29:33;;;;;;;9.63;7.07;;;1.20;99.90;;;;;;5025299;28;20520;-60
2022/01/09 07:31:58;;;;;;;7.38;6.60;;;1.20;99.90;;;;;;5014426;28;20033;-60
2022/01/09 07:34:24;;;;;;;8.23;7.18;;;1.20;99.90;;;;;;5016585;28;20503;-59
2022/01/09 07:36:50;;;;;;;7.78;5.88;;;1.20;99.90;;;;;;5023044;28;20052;-60
2022/01/09 07:39:15;;;;;;;9.95;6.85;;;1.20;99.90;;;;;;5008962;28;20101;-60
2022/01/09 07:41:42;;;;;;;8.18;6.97;;;1.20;99.90;;;;;;5026995;28;20504;-60
2022/01/09 07:44:08;;;;;;;7.95;6.78;;;1.30;99.90;;;;;;5012149;28;20803;-60
2022/01/09 07:46:34;;;;;;;6.50;5.72;;;1.30;99.90;;;;;;5017530;28;20128;-60
2022/01/09 07:49:00;;;;;;;5.80;4.57;;;1.30;99.90;;;;;;5020243;28;20509;-60
2022/01/09 07:51:26;;;;;;;4.63;3.65;;;1.30;99.90;;;;;;5008844;28;20064;-61
2022/01/09 07:53:51;;;;;;;2.70;2.30;;;1.40;99.90;;;;;;5024958;28;20033;-60
2022/01/09 07:56:17;;;;;;;2.90;2.08;;;1.40;99.90;;;;;;5010604;28;20117;-61
2022/01/09 07:58:43;;;;;;;3.03;1.70;;;1.40;99.90;;;;;;5016168;28;20030;-61
2022/01/09 08:01:08;;;;;;;2.58;2.03;;;1.50;99.90;;;;;;5015936;28;20113;-61
2022/01/09 08:03:35;;;;;;;3.13;1.85;;;1.50;99.90;;;;;;5008450;28;20029;-61
2022/01/09 08:06:01;;;;;;;1.88;1.58;;;1.50;99.90;;;;;;5028587;28;20017;-61
2022/01/09 08:08:27;;;;;;;2.05;1.83;;;1.50;99.90;;;;;;5024160;28;20135;-61
2022/01/09 08:10:52;;;;;;;2.38;2.08;;;1.50;99.90;;;;;;5014689;28;20430;-61
2022/01/09 08:13:19;;;;;;;2.83;1.85;;;1.60;99.90;;;;;;5006325;28;20375;-62
2022/01/09 08:15:45;;;;;;;2.13;1.60;;;1.60;99.90;;;;;;5010607;28;20042;-61
2022/01/09 08:18:11;;;;;;;2.50;1.85;;;1.60;99.90;;;;;;5026402;28;20140;-62
2022/01/09 08:20:42;;;;;;;2.80;1.92;;;1.60;99.90;;;;;;5008369;28;20137;-62
2022/01/09 08:23:17;;;;;;;3.97;1.88;;;1.70;99.90;;;;;;5007494;28;20030;-63
2022/01/09 08:25:43;;;;;;;1.60;1.33;;;1.70;99.90;;;;;;5013398;28;20597;-63
2022/01/09 08:28:15;;;;;;;2.28;1.63;;;1.80;99.90;;;;;;5019204;28;20517;-63
2022/01/09 08:30:43;;;;;;;1.27;1.17;;;1.80;99.90;;;;;;5004055;28;20038;-63
2022/01/09 08:33:15;;;;;;;1.45;1.35;;;1.90;99.90;;;;;;5008804;28;20018;-62
2022/01/09 08:35:40;;;;;;;0.93;0.82;;;1.90;99.90;;;;;;5008059;28;20041;-62
2022/01/09 08:38:06;;;;;;;0.98;0.93;;;1.90;99.90;;;;;;5007771;28;20034;-62
2022/01/09 08:40:32;;;;;;;1.30;1.00;;;2.00;99.90;;;;;;5007598;28;20026;-62
2022/01/09 08:42:57;;;;;;;1.02;0.80;;;1.90;99.90;;;;;;5007344;28;20453;-63
2022/01/09 08:45:23;;;;;;;0.65;0.65;;;2.00;99.90;;;;;;5008528;28;20533;-63
2022/01/09 08:47:49;;;;;;;0.50;0.50;;;2.00;99.90;;;;;;5026798;28;20503;-62
2022/01/09 08:50:18;;;;;;;1.25;0.70;;;2.00;99.90;;;;;;5009773;28;20053;-62
2022/01/09 08:52:44;;;;;;;0.75;0.47;;;2.10;99.90;;;;;;5032811;28;20525;-62
2022/01/09 08:55:16;;;;;;;1.48;0.60;;;2.10;99.90;;;;;;5018382;28;20061;-62
2022/01/09 08:57:47;;;;;;;0.55;0.50;;;2.10;99.90;;;;;;5006724;28;20259;-62
2022/01/09 09:00:18;;;;;;;0.50;0.50;;;2.10;99.90;;;;;;5007656;28;20029;-61
2022/01/09 09:02:44;;;;;;;4.20;0.50;;;2.10;99.90;;;;;;5002375;28;20038;-61
2022/01/09 09:05:20;;;;;;;0.40;0.40;;;2.10;99.90;;;;;;5001069;28;20374;-61
2022/01/09 09:07:49;;;;;;;0.80;0.50;;;2.10;99.90;;;;;;5016830;28;20025;-61
2022/01/09 09:10:17;;;;;;;0.32;0.32;;;2.00;99.90;;;;;;5024305;28;20030;-61
2022/01/09 09:12:49;;;;;;;0.85;0.30;;;2.00;99.90;;;;;;5021392;28;20117;-61
2022/01/09 09:15:14;;;;;;;0.40;0.40;;;2.00;99.90;;;;;;5022837;28;20034;-61
2022/01/09 09:17:40;;;;;;;0.40;0.40;;;2.00;99.90;;;;;;5022576;28;20038;-61
2022/01/09 09:20:18;;;;;;;0.30;0.30;;;2.00;99.90;;;;;;5018730;28;20060;-61
2022/01/09 09:22:44;;;;;;;0.40;0.40;;;2.00;99.90;;;;;;5014323;28;20033;-61
2022/01/09 09:25:19;;;;;;;0.30;0.30;;;2.10;99.90;;;;;;5005493;28;20030;-61
2022/01/09 09:27:45;;;;;;;0.43;0.40;;;2.10;99.90;;;;;;5008460;28;20037;-62
2022/01/09 09:30:19;;;;;;;0.30;0.30;;;2.10;99.90;;;;;;5025558;28;20025;-62
2022/01/09 09:32:45;;;;;;;0.30;0.30;;;2.20;99.90;;;;;;5026054;28;20124;-62
2022/01/09 09:35:20;;;;;;;0.30;0.30;;;2.10;99.90;;;;;;5011216;28;20108;-62
2022/01/09 09:37:45;;;;;;;0.50;0.40;;;2.10;99.90;;;;;;5014657;28;20520;-62
2022/01/09 09:40:12;;;;;;;0.40;0.30;;;2.10;99.90;;;;;;5019391;28;20022;-62
2022/01/09 09:42:37;;;;;;;0.60;0.30;;;2.20;99.90;;;;;;5003073;28;20108;-61
2022/01/09 09:45:23;;;;;;;0.30;0.30;;;2.20;99.90;;;;;;5006664;28;20524;-62
2022/01/09 09:47:50;;;;;;;0.32;0.32;;;2.20;99.90;;;;;;5008438;28;20087;-62
2022/01/09 09:50:16;;;;;;;0.47;0.43;;;2.20;99.90;;;;;;5007359;28;20030;-62
2022/01/09 09:52:44;;;;;;;4.55;0.50;;;2.20;99.90;;;;;;5005471;28;20025;-62
2022/01/09 09:55:24;;;;;;;0.68;0.40;;;2.30;99.90;;;;;;5003664;28;20072;-63
2022/01/09 09:57:50;;;;;;;0.47;0.40;;;2.20;99.90;;;;;;5020103;28;20022;-62
2022/01/09 10:00:25;;;;;;;1.02;0.50;;;2.30;99.90;;;;;;5003937;28;20574;-63
2022/01/09 10:02:54;;;;;;;0.40;0.40;;;2.20;99.90;;;;;;5024943;28;20401;-63
2022/01/09 10:05:39;;;;;;;0.40;0.38;;;2.20;99.90;;;;;;5006116;28;20061;-63
2022/01/09 10:08:16;;;;;;;0.40;0.40;;;2.30;99.90;;;;;;5017748;28;20037;-62
2022/01/09 10:10:43;;;;;;;0.98;0.40;;;2.30;99.90;;;;;;5013556;28;20383;-63
2022/01/09 10:13:11;;;;;;;0.70;0.47;;;2.40;99.90;;;;;;5010091;28;20029;-63
2022/01/09 10:15:44;;;;;;;1.33;0.47;;;2.40;99.90;;;;;;5022712;28;20745;-63
2022/01/09 10:18:10;;;;;;;3.30;0.60;;;2.40;99.90;;;;;;5005226;28;20060;-63
2022/01/09 10:20:42;;;;;;;0.38;0.38;;;2.40;99.90;;;;;;5030468;28;20056;-62
2022/01/09 10:23:08;;;;;;;1.33;0.80;;;2.40;99.90;;;;;;5023377;28;20068;-63
2022/01/09 10:25:38;;;;;;;1.48;1.35;;;2.40;99.90;;;;;;5005089;28;20054;-63
2022/01/09 10:28:04;;;;;;;1.10;0.50;;;2.40;99.90;;;;;;5009346;28;20049;-62
2022/01/09 10:30:39;;;;;;;0.73;0.63;;;2.40;99.90;;;;;;5023883;28;20053;-63
2022/01/09 10:33:20;;;;;;;1.67;0.60;;;2.40;99.90;;;;;;5003309;28;20025;-62
2022/01/09 10:35:47;;;;;;;0.80;0.50;;;2.40;99.90;;;;;;5036328;28;20084;-63
2022/01/09 10:38:19;;;;;;;1.58;0.50;;;2.40;99.90;;;;;;5057058;28;20032;-63
2022/01/09 10:40:49;;;;;;;0.85;0.65;;;2.40;99.90;;;;;;5023703;28;20030;-63
2022/01/09 10:43:18;;;;;;;0.75;0.52;;;2.40;99.90;;;;;;5024983;28;20455;-62
2022/01/09 10:45:56;;;;;;;1.02;0.80;;;2.40;99.90;;;;;;5023499;28;20109;-63
2022/01/09 10:48:23;;;;;;;0.70;0.60;;;2.50;99.90;;;;;;5025562;28;20491;-63
2022/01/09 10:50:51;;;;;;;2.80;0.80;;;2.50;99.90;;;;;;5024235;28;20461;-62
2022/01/09 10:53:23;;;;;;;2.58;0.90;;;2.50;99.90;;;;;;5026841;28;20030;-62
2022/01/09 10:56:17;;;;;;;1.10;0.90;;;2.50;99.90;;;;;;5023492;28;20061;-63
2022/01/09 10:58:45;;;;;;;1.20;0.80;;;2.50;99.90;;;;;;5024792;28;20037;-63
2022/01/09 11:01:24;;;;;;;2.50;0.90;;;2.40;99.90;;;;;;5023197;28;20033;-63
2022/01/09 11:03:55;;;;;;;1.70;1.48;;;2.50;99.90;;;;;;5022074;28;20034;-62
2022/01/09 11:06:23;;;;;;;2.40;1.00;;;2.50;99.90;;;;;;5024767;28;20408;-63
2022/01/09 11:08:52;;;;;;;1.42;0.80;;;2.50;99.90;;;;;;5022561;28;20052;-62
2022/01/09 11:11:29;;;;;;;1.38;0.75;;;2.60;99.90;;;;;;5023208;28;20033;-63
2022/01/09 11:13:57;;;;;;;1.95;0.90;;;2.60;99.90;;;;;;5020946;28;20167;-63
2022/01/09 11:19:13;;;;;;;1.98;0.82;;;2.60;99.90;;;;;;5024486;28;20083;-62
2022/01/09 11:21:54;;;;;;;1.30;0.80;;;2.60;99.90;;;;;;5023648;28;20032;-62
2022/01/09 11:24:22;;;;;;;1.15;0.80;;;2.60;99.90;;;;;;5025358;28;20017;-62
2022/01/09 11:27:13;;;;;;;2.40;0.80;;;2.60;99.90;;;;;;5025611;28;20188;-63
2022/01/09 11:30:00;;;;;;;1.30;0.60;;;2.70;99.90;;;;;;5024860;28;20516;-62
2022/01/09 11:32:28;;;;;;;1.55;0.95;;;2.70;99.90;;;;;;5022642;28;20046;-62
2022/01/09 11:35:22;;;;;;;1.65;1.20;;;2.70;99.90;;;;;;5026418;28;20025;-62
2022/01/09 11:38:19;;;;;;;7.45;1.40;;;2.70;99.90;;;;;;5059079;28;20033;-62
2022/01/09 11:40:45;;;;;;;1.00;0.80;;;2.80;99.90;;;;;;5029368;28;20145;-62
2022/01/09 11:43:14;;;;;;;0.85;0.82;;;2.80;99.90;;;;;;5028674;28;20634;-62
2022/01/09 11:45:51;;;;;;;2.63;0.77;;;2.80;99.90;;;;;;5027901;28;20021;-63
2022/01/09 11:48:41;;;;;;;1.20;1.10;;;2.80;99.90;;;;;;5028207;28;20141;-62
2022/01/09 11:51:07;;;;;;;1.10;1.00;;;2.70;99.90;;;;;;5024763;28;20082;-62
2022/01/09 11:54:10;;;;;;;2.00;0.77;;;2.70;99.90;;;;;;5025684;28;20484;-62
2022/01/09 11:56:48;;;;;;;1.58;0.70;;;2.70;99.90;;;;;;5023002;28;20115;-62
2022/01/09 11:59:34;;;;;;;3.58;1.20;;;2.70;99.90;;;;;;5026244;28;20030;-62
2022/01/09 12:02:04;;;;;;;1.98;0.90;;;2.70;99.90;;;;;;5025951;28;20375;-62
2022/01/09 12:04:32;;;;;;;1.23;0.70;;;2.60;99.90;;;;;;5026979;28;20033;-62
2022/01/09 12:07:07;;;;;;;0.65;0.57;;;2.60;99.90;;;;;;5027652;28;20029;-62
2022/01/09 12:09:52;;;;;;;3.92;0.80;;;2.60;99.90;;;;;;5029594;28;20025;-62
2022/01/09 12:12:22;;;;;;;2.65;0.70;;;2.60;99.90;;;;;;5027060;28;20164;-62
2022/01/09 12:15:02;;;;;;;2.90;0.80;;;2.50;99.90;;;;;;5001168;28;20034;-62
2022/01/09 12:17:39;;;;;;;0.80;0.60;;;2.50;99.90;;;;;;5023702;28;20125;-61
2022/01/09 12:20:26;;;;;;;1.33;0.70;;;2.40;99.90;;;;;;5039752;28;20109;-62
2022/01/09 12:23:06;;;;;;;0.63;0.60;;;2.40;99.90;;;;;;5033171;28;20029;-62
2022/01/09 12:25:39;;;;;;;0.60;0.50;;;2.40;99.90;;;;;;5026333;28;20091;-62
2022/01/09 12:28:38;;;;;;;1.40;0.50;;;2.40;99.90;;;;;;5026268;28;20049;-62
2022/01/09 12:31:03;;;;;;;1.20;0.60;;;2.30;99.90;;;;;;5025233;28;20112;-62
2022/01/09 12:33:31;;;;;;;0.60;0.60;;;2.40;99.90;;;;;;5025446;28;20144;-62
2022/01/09 12:36:14;;;;;;;1.45;0.68;;;2.40;99.90;;;;;;5024981;28;20029;-62
2022/01/09 12:38:51;;;;;;;0.75;0.50;;;2.40;99.90;;;;;;5027810;28;20030;-62
2022/01/09 12:41:22;;;;;;;0.75;0.60;;;2.40;99.90;;;;;;5027347;28;20025;-61
2022/01/09 12:43:50;;;;;;;0.73;0.60;;;2.40;99.90;;;;;;5026408;28;20041;-62
2022/01/09 12:46:19;;;;;;;0.90;0.70;;;2.40;99.90;;;;;;5026905;28;20051;-62
2022/01/09 12:48:55;;;;;;;0.68;0.60;;;2.40;99.90;;;;;;5026927;28;20481;-61
2022/01/09 12:51:20;;;;;;;1.45;0.90;;;2.50;99.90;;;;;;5023581;28;20022;-67
2022/01/09 12:53:51;;;;;;;2.35;1.63;;;2.50;99.90;;;;;;5029577;28;20403;-62
2022/01/09 12:56:22;;;;;;;1.40;0.80;;;2.50;99.90;;;;;;5024919;28;20033;-62
2022/01/09 12:59:01;;;;;;;1.10;1.00;;;2.60;99.90;;;;;;5024668;28;20424;-62
2022/01/09 13:01:32;;;;;;;1.27;0.90;;;2.60;99.90;;;;;;5014339;28;20044;-61
2022/01/09 13:04:00;;;;;;;1.02;0.80;;;2.60;99.90;;;;;;5024196;28;20025;-61
2022/01/09 13:06:26;;;;;;;0.98;0.63;;;2.70;99.90;;;;;;5027450;28;20021;-62